Flight Track Log - Related Links

Times and Time Zones

All times are in EDT time to prevent confusion due to time zone crossing. See the SKW6306 flight status page for this flight to view local times or setup timezone preferences in your user account.

Time Position Orientation Groundspeed Altitude Reporting Facility
EDT Latitude Longitude Course Direction KTS MPH feet Rate Location/Type
Wed 03:55:19 PM 39.8431 -104.7569 301° West 181 208 6,400  Level Denver Center
Wed 03:56:21 PM 39.8772 -104.8319 301° West 244 281 7,400 1,268 Climbing Denver Center
Wed 03:57:22 PM 39.9306 -104.9186 309° West 289 333 9,000 1,366 Climbing Denver Center
Wed 03:58:24 PM 40.0108 -104.9481 344° North 308 354 10,200 1,355 Climbing Denver Center
Wed 03:59:26 PM 40.0983 -104.9289 10° North 322 371 11,800 1,694 Climbing Denver Center
Wed 04:00:28 PM 40.1744 -104.8511 38° Northeast 324 373 13,700 1,548 Climbing Denver Center
Wed 04:01:30 PM 40.2606 -104.8186 16° North 326 375 15,000 1,210 Climbing Denver Center
Wed 04:02:32 PM 40.3553 -104.8258 357° North 338 389 16,200 1,016 Climbing Denver Center
Wed 04:03:34 PM 40.4644 -104.8306 358° North 362 417 17,100 677 Climbing Denver Center
Wed 04:04:36 PM 40.5700 -104.8392 356° North 382 440 17,600 532 Climbing Denver Center
Wed 04:05:38 PM 40.6928 -104.8447 358° North 408 470 18,200 532 Climbing Denver Center
Wed 04:06:40 PM 40.8053 -104.8606 354° North 394 453 18,700 581 Climbing Denver Center
Wed 04:07:42 PM 40.9139 -104.9122 340° North 409 471 19,400 726 Climbing Denver Center
Wed 04:08:44 PM 41.0219 -104.9644 340° North 407 468 20,200 629 Climbing Denver Center
Wed 04:09:46 PM 41.1294 -104.9853 352° North 409 471 20,700 581 Climbing Denver Center
Wed 04:10:48 PM 41.2603 -104.9831 North 424 488 21,400 532 Climbing Denver Center
Wed 04:11:50 PM 41.3722 -104.9794 North 419 482 21,800 532 Climbing Denver Center
Wed 04:12:52 PM 41.5022 -104.9947 355° North 421 484 22,500 732 Climbing Denver Center
Wed 04:13:53 PM 41.6111 -105.0228 349° North 415 478 23,300 683 Climbing Denver Center
Wed 04:14:55 PM 41.7389 -105.0592 348° North 421 484 23,900 581 Climbing Denver Center
Wed 04:15:57 PM 41.8483 -105.0872 349° North 418 481 24,500 629 Climbing Denver Center
Wed 04:16:59 PM 41.9772 -105.1203 349° North 419 482 25,200 581 Climbing Denver Center
Wed 04:18:01 PM 42.0903 -105.1519 348° North 430 495 25,700 484 Climbing Denver Center
Wed 04:19:03 PM 42.2042 -105.1822 349° North 434 499 26,200 485 Climbing Denver Center
Wed 04:20:17 PM 42.3594 -105.2231 349° North 442 509 26,800 529 Climbing Denver Center
Wed 04:21:19 PM 42.4928 -105.2589 349° North 438 504 27,400 528 Climbing Denver Center
Wed 04:22:56 PM 42.6850 -105.3119 349° North 438 504 28,200 491 Climbing Salt Lake Center
Wed 04:23:58 PM 42.8014 -105.3431 349° North 441 507 28,700 532 Climbing Salt Lake Center
Wed 04:25:00 PM 42.9378 -105.3811 348° North 444 511 29,300 532 Climbing Salt Lake Center
Wed 04:26:02 PM 43.0536 -105.4125 349° North 444 511 29,800 484 Climbing Salt Lake Center
Wed 04:27:04 PM 43.1692 -105.4444 349° North 442 509 30,300 484 Climbing Salt Lake Center
Wed 04:28:06 PM 43.3036 -105.4806 349° North 441 507 30,800 488 Climbing Salt Lake Center
Wed 04:29:07 PM 43.4169 -105.5119 349° North 436 502 31,300 439 Climbing Salt Lake Center
Wed 04:30:09 PM 43.5494 -105.5486 349° North 434 499 31,700 339 Climbing Salt Lake Center
Wed 04:31:11 PM 43.6631 -105.5800 349° North 434 499 32,000 145 Climbing Salt Lake Center
Wed 04:32:13 PM 43.7981 -105.6206 348° North 439 505 32,000  Level Salt Lake Center
Wed 04:33:14 PM 43.9181 -105.6544 349° North 449 517 32,000  Level Salt Lake Center
Wed 04:34:16 PM 44.0389 -105.6872 349° North 456 525 32,000  Level Salt Lake Center
Wed 04:35:18 PM 44.1783 -105.7278 348° North 458 527 32,000  Level Salt Lake Center
Wed 04:36:20 PM 44.2983 -105.7625 348° North 459 528 32,000  Level Salt Lake Center
Wed 04:37:22 PM 44.4383 -105.8006 349° North 459 528 32,000  Level Salt Lake Center
Wed 04:38:23 PM 44.5581 -105.8361 348° North 459 528 32,000  Level Salt Lake Center
Wed 04:39:25 PM 44.6986 -105.8764 348° North 461 531 32,000  Level Salt Lake Center
Wed 04:40:27 PM 44.8186 -105.9108 348° North 461 531 32,000  Level Salt Lake Center
Wed 04:41:29 PM 44.9403 -105.9472 348° North 464 534 32,000  Level Salt Lake Center
Wed 04:42:31 PM 45.0808 -105.9875 349° North 463 533 32,000  Level Salt Lake Center
Wed 04:43:32 PM 45.2017 -106.0242 348° North 463 533 32,000  Level Salt Lake Center
Wed 04:44:34 PM 45.3350 -106.0642 348° North 465 535 32,000  Level Salt Lake Center
Wed 04:45:36 PM 45.4617 -106.1006 349° North 464 534 32,000  Level Salt Lake Center
Wed 04:46:38 PM 45.5875 -106.1394 348° North 464 534 32,000  Level Salt Lake Center
Wed 04:47:40 PM 45.7142 -106.1778 348° North 464 534 32,000  Level Salt Lake Center
Wed 04:48:41 PM 45.8397 -106.2133 349° North 463 533 32,000  Level Salt Lake Center
Wed 04:49:43 PM 45.9900 -106.2581 348° North 461 531 32,000  Level Salt Lake Center
Wed 04:50:45 PM 46.1169 -106.2975 348° North 462 532 32,000  Level Salt Lake Center
Wed 04:51:47 PM 46.2442 -106.3369 348° North 464 534 32,000  Level Salt Lake Center
Wed 04:52:48 PM 46.3711 -106.3758 348° North 465 535 32,000  Level Salt Lake Center
Wed 04:53:50 PM 46.4981 -106.4139 348° North 466 536 32,000  Level Salt Lake Center
Wed 04:54:52 PM 46.6264 -106.4558 347° North 467 537 32,000  Level Salt Lake Center
Wed 04:55:54 PM 46.7547 -106.4953 348° North 469 540 32,000  Level Salt Lake Center
Wed 04:56:55 PM 46.9086 -106.5444 348° North 470 541 32,000  Level Salt Lake Center
Wed 04:57:57 PM 47.0367 -106.5858 348° North 470 541 32,000 -48 Level Salt Lake Center
Wed 04:58:59 PM 47.1653 -106.6264 348° North 471 542 31,900  Descending Salt Lake Center
Wed 05:00:01 PM 47.2939 -106.6681 348° North 472 543 32,000 49 Climbing Salt Lake Center
Wed 05:01:02 PM 47.4236 -106.7114 347° North 475 547 32,000  Level Salt Lake Center
Wed 05:02:04 PM 47.5506 -106.7508 348° North 472 543 32,000  Level Salt Lake Center
Wed 05:03:06 PM 47.6800 -106.7931 348° North 473 544 32,000  Level Salt Lake Center
Wed 05:04:08 PM 47.8350 -106.8439 348° North 474 545 32,000  Level Salt Lake Center
Wed 05:06:07 PM 48.0667 -106.9333 346° North 470 541 32,000  Level Winnipeg Center
Wed 05:07:07 PM 48.2000 -106.9833 346° North 470 541 32,000  Level Winnipeg Center
Wed 05:08:07 PM 48.3167 -107.0333 344° North 470 541 32,000  Level Winnipeg Center
Wed 05:09:07 PM 48.4500 -107.0667 351° North 470 541 32,000  Level Winnipeg Center
Wed 05:10:07 PM 48.5833 -107.1167 346° North 450 518 32,000  Level Winnipeg Center
Wed 05:11:07 PM 48.7000 -107.1667 344° North 480 552 32,000  Level Winnipeg Center
Wed 05:12:07 PM 48.8500 -107.2333 344° North 470 541 32,000  Level Winnipeg Center
Wed 05:13:07 PM 48.9667 -107.2500 355° North 470 541 32,000  Level Winnipeg Center
Wed 05:14:07 PM 49.0833 -107.3000 344° North 470 541 32,000  Level Winnipeg Center
Wed 05:15:07 PM 49.2167 -107.3333 351° North 470 541 32,000  Level Winnipeg Center
Wed 05:16:07 PM 49.3333 -107.3833 344° North 470 541 32,000  Level Winnipeg Center
Wed 05:17:07 PM 49.4833 -107.4500 344° North 470 541 32,000  Level Winnipeg Center
Wed 05:18:07 PM 49.6000 -107.4667 355° North 470 541 32,000  Level Winnipeg Center
Wed 05:19:07 PM 49.7000 -107.5167 342° North 460 529 32,000  Level Winnipeg Center
Wed 05:20:07 PM 49.8500 -107.5833 344° North 470 541 32,000  Level Winnipeg Center
Wed 05:21:07 PM 49.9667 -107.6000 355° North 470 541 32,000  Level Winnipeg Center
Wed 05:22:07 PM 50.1000 -107.6667 342° North 460 529 32,000  Level Winnipeg Center
Wed 05:23:07 PM 50.2333 -107.6833 355° North 460 529 32,000  Level Winnipeg Center
Wed 05:24:07 PM 50.3500 -107.7167 350° North 470 541 32,000  Level Winnipeg Center
Wed 05:25:07 PM 50.4833 -107.7000 North 470 541 32,000 -150 Level Winnipeg Center
Wed 05:26:07 PM 50.6167 -107.6667 North 470 541 31,700 -1,100 Descending Winnipeg Center
Wed 05:27:07 PM 50.7333 -107.6500 North 470 541 29,800 -2,250 Descending Winnipeg Center
Wed 05:28:07 PM 50.8667 -107.6000 13° North 460 529 27,200 -2,500 Descending Winnipeg Center
Wed 05:29:07 PM 50.9667 -107.5500 17° North 430 495 24,800 -2,550 Descending Winnipeg Center
Wed 05:30:07 PM 51.1000 -107.4833 17° North 410 472 22,100 -2,500 Descending Winnipeg Center
Wed 05:31:07 PM 51.2000 -107.4333 17° North 400 460 19,800 -2,100 Descending Winnipeg Center
Wed 05:32:07 PM 51.2833 -107.4000 14° North 380 437 17,900 -1,850 Descending Winnipeg Center
Wed 05:33:07 PM 51.4000 -107.3500 15° North 370 426 16,100 -1,600 Descending Winnipeg Center
Wed 05:34:07 PM 51.4833 -107.3167 14° North 350 403 14,700 -1,500 Descending Winnipeg Center
Wed 05:35:07 PM 51.5833 -107.2500 22° Northeast 340 391 13,100 -1,550 Descending Winnipeg Center
Wed 05:36:07 PM 51.6500 -107.2167 17° North 340 391 11,600 -1,550 Descending Winnipeg Center
Wed 05:37:07 PM 51.7500 -107.1833 12° North 320 368 10,000 -1,550 Descending Winnipeg Center
Wed 05:38:07 PM 51.8333 -107.1500 14° North 290 334 8,500 -1,600 Descending Winnipeg Center
Wed 05:39:07 PM 51.9000 -107.1000 25° Northeast 270 311 6,800 -1,250 Descending Winnipeg Center
Wed 05:40:07 PM 51.9667 -107.0667 17° North 260 299 6,000 -600 Descending Winnipeg Center
Wed 05:41:07 PM 52.0333 -107.0500 North 260 299 5,600 -750 Descending Winnipeg Center
Wed 05:42:07 PM 52.1000 -107.0167 17° North 230 265 4,500 -800 Descending Winnipeg Center
Wed 05:43:07 PM 52.1500 -106.9667 32° Northeast 220 253 4,000 -500 Descending Winnipeg Center

Login

Don't have an account? Register now (free) for customized features, flight alerts, and more!